Time;durP1;ratioP1;P1;durP2;ratioP2;P2;SDS_P1;SDS_P2;PMS_P1;PMS_P2;Temp;Humidity;BMP_temperature;BMP_pressure;BME280_temperature;BME280_humidity;BME280_pressure;Samples;Min_cycle;Max_cycle;Signal;HPM_P1;HPM_P2
2023/10/19 00:00:25;;;;;;;34.97;12.40;;;;;;;;;;5072043;28;20047;-67
2023/10/19 00:02:52;;;;;;;29.92;11.80;;;;;;;;;;5072040;28;20048;-67
2023/10/19 00:05:20;;;;;;;26.95;12.52;;;;;;;;;;5071984;28;20033;-67
2023/10/19 00:07:47;;;;;;;31.20;12.00;;;;;;;;;;5071909;28;20048;-66
2023/10/19 00:10:16;;;;;;;29.65;12.32;;;;;;;;;;5071929;28;20040;-66
2023/10/19 00:12:43;;;;;;;23.27;13.07;;;;;;;;;;5071931;28;20052;-66
2023/10/19 00:15:12;;;;;;;32.85;12.23;;;;;;;;;;5071869;28;20036;-66
2023/10/19 00:17:44;;;;;;;26.00;13.35;;;;;;;;;;5071809;28;20080;-67
2023/10/19 00:20:35;;;;;;;29.70;13.90;;;;;;;;;;5071665;28;20060;-67
2023/10/19 00:23:05;;;;;;;41.65;14.80;;;;;;;;;;5071803;28;20487;-66
2023/10/19 00:25:34;;;;;;;29.83;15.18;;;;;;;;;;5071676;28;20048;-67
2023/10/19 00:28:05;;;;;;;35.58;15.02;;;;;;;;;;5087331;28;20139;-66
2023/10/19 00:30:35;;;;;;;33.85;16.27;;;;;;;;;;5070395;28;20127;-66
2023/10/19 00:33:16;;;;;;;32.05;16.38;;;;;;;;;;5070675;28;20144;-67
2023/10/19 00:35:50;;;;;;;36.22;17.88;;;;;;;;;;5073871;28;20063;-66
2023/10/19 00:38:53;;;;;;;35.97;16.85;;;;;;;;;;5073809;28;20044;-66
2023/10/19 00:41:11;;;;;;;30.77;17.38;;;;;;;;;;5071847;28;20098;-66
2023/10/19 00:43:43;;;;;;;27.58;15.52;;;;;;;;;;5075078;28;20551;-66
2023/10/19 00:46:20;;;;;;;28.20;15.70;;;;;;;;;;5073759;28;20072;-66
2023/10/19 00:48:54;;;;;;;30.30;15.90;;;;;;;;;;5074990;28;20048;-67
2023/10/19 00:51:29;;;;;;;28.80;14.27;;;;;;;;;;5073683;28;20052;-66
2023/10/19 00:53:58;;;;;;;29.08;14.50;;;;;;;;;;5074975;28;20037;-66
2023/10/19 00:56:30;;;;;;;23.95;13.50;;;;;;;;;;5073637;28;20110;-66
2023/10/19 00:59:12;;;;;;;23.63;12.80;;;;;;;;;;5057637;28;20072;-66
2023/10/19 01:01:43;;;;;;;26.70;12.43;;;;;;;;;;5073528;28;20041;-66
2023/10/19 01:04:20;;;;;;;22.40;11.73;;;;;;;;;;5074666;28;20547;-66
2023/10/19 01:09:47;;;;;;;21.08;10.50;;;;;;;;;;5051028;28;20072;-66
2023/10/19 01:12:35;;;;;;;20.35;10.57;;;;;;;;;;5073124;28;20493;-66
2023/10/19 01:15:29;;;;;;;22.70;10.95;;;;;;;;;;5073206;28;20094;-66
2023/10/19 01:17:57;;;;;;;22.23;11.88;;;;;;;;;;5073006;28;20044;-66
2023/10/19 01:31:17;;;;;;;22.90;11.52;;;;;;;;;;5072930;28;20037;-66
2023/10/19 01:33:45;;;;;;;27.30;13.40;;;;;;;;;;5074067;28;20067;-66
2023/10/19 01:38:54;;;;;;;32.97;12.88;;;;;;;;;;5072539;28;20052;-66
2023/10/19 01:54:27;;;;;;;26.38;13.57;;;;;;;;;;5100942;27;20433;-65
2023/10/19 01:56:58;;;;;;;25.10;12.38;;;;;;;;;;5110479;28;20040;-65
2023/10/19 01:59:29;;;;;;;25.85;13.35;;;;;;;;;;5091003;28;20066;-65
2023/10/19 02:01:57;;;;;;;25.05;12.63;;;;;;;;;;5089870;28;20040;-65
2023/10/19 02:04:25;;;;;;;27.40;12.88;;;;;;;;;;5088626;28;20090;-66
2023/10/19 02:06:53;;;;;;;28.05;13.25;;;;;;;;;;5089773;28;20036;-65
2023/10/19 02:09:22;;;;;;;26.50;12.85;;;;;;;;;;5089921;28;20059;-66
2023/10/19 02:11:53;;;;;;;23.05;12.65;;;;;;;;;;5088279;28;20055;-65
2023/10/19 02:14:21;;;;;;;24.75;13.50;;;;;;;;;;5088492;28;20055;-66
2023/10/19 02:16:52;;;;;;;27.58;13.85;;;;;;;;;;5088159;28;20032;-66
2023/10/19 02:19:21;;;;;;;31.20;13.93;;;;;;;;;;5088385;28;20048;-66
2023/10/19 02:21:53;;;;;;;28.55;13.35;;;;;;;;;;5088186;28;20566;-65
2023/10/19 02:24:20;;;;;;;27.58;12.52;;;;;;;;;;5088214;28;20056;-66
2023/10/19 02:26:51;;;;;;;28.48;12.43;;;;;;;;;;5088137;28;20036;-66
2023/10/19 02:29:19;;;;;;;26.60;12.88;;;;;;;;;;5089430;28;20043;-66
2023/10/19 02:31:48;;;;;;;25.20;12.27;;;;;;;;;;5089444;28;20405;-66
2023/10/19 02:34:15;;;;;;;27.90;13.05;;;;;;;;;;5088160;28;20106;-66
2023/10/19 02:36:44;;;;;;;25.25;12.40;;;;;;;;;;5088135;28;20464;-66
2023/10/19 02:39:13;;;;;;;25.60;12.25;;;;;;;;;;5087984;28;20140;-66
2023/10/19 02:41:46;;;;;;;27.23;12.02;;;;;;;;;;5088975;28;20047;-65
2023/10/19 02:46:45;;;;;;;25.10;12.43;;;;;;;;;;5087705;28;20451;-66
2023/10/19 02:49:18;;;;;;;21.13;10.70;;;;;;;;;;5090070;28;20123;-66
2023/10/19 02:51:47;;;;;;;25.95;11.35;;;;;;;;;;5067399;28;20060;-65
2023/10/19 02:54:20;;;;;;;23.00;11.52;;;;;;;;;;5061435;28;20037;-66
2023/10/19 02:56:52;;;;;;;29.30;11.68;;;;;;;;;;5054100;28;20052;-65
2023/10/19 02:59:24;;;;;;;24.95;12.18;;;;;;;;;;5054050;28;20402;-66
2023/10/19 03:04:40;;;;;;;23.45;11.35;;;;;;;;;;5053971;28;20494;-66
2023/10/19 03:07:07;;;;;;;27.30;11.80;;;;;;;;;;5053982;28;20090;-66
2023/10/19 03:09:36;;;;;;;23.52;11.23;;;;;;;;;;5053900;28;20107;-66
2023/10/19 03:12:09;;;;;;;28.25;11.63;;;;;;;;;;5055129;28;20033;-66
2023/10/19 03:14:37;;;;;;;24.88;11.90;;;;;;;;;;5055430;28;20395;-65
2023/10/19 03:17:08;;;;;;;22.67;10.95;;;;;;;;;;5054916;28;20484;-66
2023/10/19 03:19:35;;;;;;;24.20;11.77;;;;;;;;;;5053723;28;20076;-66
2023/10/19 03:22:05;;;;;;;20.27;10.85;;;;;;;;;;5021012;28;20044;-66
2023/10/19 03:24:37;;;;;;;22.33;10.88;;;;;;;;;;5053628;28;20077;-66
2023/10/19 03:27:12;;;;;;;21.45;11.13;;;;;;;;;;5053484;28;20065;-66
2023/10/19 03:29:45;;;;;;;20.48;10.82;;;;;;;;;;5053500;28;20051;-66
2023/10/19 03:32:14;;;;;;;21.17;10.32;;;;;;;;;;5054710;28;20060;-66
2023/10/19 03:34:47;;;;;;;19.10;9.95;;;;;;;;;;5054694;28;20037;-66
2023/10/19 03:37:15;;;;;;;16.30;9.23;;;;;;;;;;5053429;28;20495;-66
2023/10/19 03:39:45;;;;;;;19.20;9.55;;;;;;;;;;5054611;28;20059;-66
2023/10/19 03:42:14;;;;;;;17.42;9.13;;;;;;;;;;5053190;28;20060;-66
2023/10/19 03:47:18;;;;;;;18.33;9.02;;;;;;;;;;5073172;28;20043;-66
2023/10/19 03:49:46;;;;;;;19.45;9.93;;;;;;;;;;5074693;28;20448;-66
2023/10/19 03:54:42;;;;;;;20.10;9.75;;;;;;;;;;5074204;28;20132;-66
2023/10/19 03:57:25;;;;;;;19.15;9.57;;;;;;;;;;5072943;28;20382;-65
2023/10/19 03:59:56;;;;;;;19.77;9.77;;;;;;;;;;5072990;28;20079;-66
2023/10/19 04:02:24;;;;;;;20.85;10.18;;;;;;;;;;5056626;28;20402;-65
2023/10/19 04:04:55;;;;;;;19.67;9.95;;;;;;;;;;5073894;28;20041;-65
2023/10/19 04:07:25;;;;;;;20.63;9.82;;;;;;;;;;5073417;28;20039;-64
2023/10/19 04:09:57;;;;;;;20.50;9.75;;;;;;;;;;5074026;28;20048;-65
2023/10/19 04:12:25;;;;;;;19.90;10.88;;;;;;;;;;5073943;28;20094;-65
2023/10/19 04:14:53;;;;;;;21.15;10.25;;;;;;;;;;5074208;28;20392;-65
2023/10/19 04:17:24;;;;;;;15.82;9.70;;;;;;;;;;5073768;28;20072;-65
2023/10/19 04:19:52;;;;;;;21.70;10.15;;;;;;;;;;5072650;28;20044;-64
2023/10/19 04:22:23;;;;;;;16.95;9.38;;;;;;;;;;5072937;28;20037;-65
2023/10/19 04:24:54;;;;;;;21.85;10.02;;;;;;;;;;5071978;28;20040;-66
2023/10/19 04:27:23;;;;;;;34.72;10.18;;;;;;;;;;5072250;28;20041;-66
2023/10/19 04:29:51;;;;;;;22.25;10.23;;;;;;;;;;5072596;28;20103;-65
2023/10/19 04:32:25;;;;;;;19.92;9.82;;;;;;;;;;5072188;28;20041;-65
2023/10/19 04:34:53;;;;;;;23.38;9.65;;;;;;;;;;5071855;28;20379;-65
2023/10/19 04:37:23;;;;;;;18.60;9.30;;;;;;;;;;5072845;28;20040;-65
2023/10/19 04:39:51;;;;;;;16.75;10.07;;;;;;;;;;5073364;28;20570;-65
2023/10/19 04:42:22;;;;;;;18.85;10.20;;;;;;;;;;5073479;28;20123;-65
2023/10/19 04:44:50;;;;;;;16.85;10.30;;;;;;;;;;5071956;28;20492;-66
2023/10/19 04:47:17;;;;;;;26.23;10.70;;;;;;;;;;5073230;28;20036;-66
2023/10/19 04:49:45;;;;;;;21.70;10.52;;;;;;;;;;5073171;28;20076;-66
2023/10/19 04:52:12;;;;;;;21.65;11.82;;;;;;;;;;5073268;28;20123;-65
2023/10/19 04:54:40;;;;;;;21.65;9.68;;;;;;;;;;5073474;28;20611;-65
2023/10/19 04:57:07;;;;;;;22.17;10.30;;;;;;;;;;5073092;28;20048;-66
2023/10/19 04:59:35;;;;;;;21.08;10.02;;;;;;;;;;5073382;28;20422;-66
2023/10/19 05:02:03;;;;;;;22.15;10.85;;;;;;;;;;5073350;28;20117;-66
2023/10/19 05:04:30;;;;;;;18.50;10.82;;;;;;;;;;5072907;28;20094;-65
2023/10/19 05:06:58;;;;;;;20.40;9.65;;;;;;;;;;5072904;28;20033;-65
2023/10/19 05:09:26;;;;;;;17.02;9.70;;;;;;;;;;5071717;28;20509;-66
2023/10/19 05:11:53;;;;;;;18.98;9.85;;;;;;;;;;5073038;28;20045;-65
2023/10/19 05:14:21;;;;;;;23.75;9.50;;;;;;;;;;5071543;28;20048;-65
2023/10/19 05:16:49;;;;;;;22.58;9.95;;;;;;;;;;5071179;28;20135;-65
2023/10/19 05:19:16;;;;;;;17.73;10.48;;;;;;;;;;5072883;28;20070;-65
2023/10/19 05:21:44;;;;;;;21.02;9.48;;;;;;;;;;5071584;28;20044;-65
2023/10/19 05:24:13;;;;;;;19.92;10.25;;;;;;;;;;5071492;28;20044;-66
2023/10/19 05:26:40;;;;;;;21.17;10.05;;;;;;;;;;5072435;28;20462;-65
2023/10/19 05:29:08;;;;;;;21.52;9.88;;;;;;;;;;5072611;28;20055;-65
2023/10/19 05:31:36;;;;;;;24.48;10.73;;;;;;;;;;5072448;28;20062;-65
2023/10/19 05:34:04;;;;;;;21.90;10.43;;;;;;;;;;5072727;28;20043;-65
2023/10/19 05:36:32;;;;;;;21.52;10.55;;;;;;;;;;5071549;28;20047;-65
2023/10/19 05:38:59;;;;;;;19.48;11.93;;;;;;;;;;5055048;28;20071;-65
2023/10/19 05:41:27;;;;;;;19.80;10.93;;;;;;;;;;5072581;28;20037;-65
2023/10/19 05:43:54;;;;;;;22.83;11.27;;;;;;;;;;5072594;28;20478;-66
2023/10/19 05:46:24;;;;;;;35.80;10.82;;;;;;;;;;5072600;28;20452;-66
2023/10/19 05:48:56;;;;;;;18.40;10.35;;;;;;;;;;5072453;28;20048;-66
2023/10/19 05:51:23;;;;;;;25.73;10.15;;;;;;;;;;5071258;28;20044;-67
2023/10/19 05:53:51;;;;;;;20.33;10.20;;;;;;;;;;5071202;28;20057;-66
2023/10/19 05:56:21;;;;;;;22.63;10.10;;;;;;;;;;5072438;28;20047;-66
2023/10/19 05:58:50;;;;;;;24.77;10.82;;;;;;;;;;5080612;28;20085;-66
2023/10/19 06:01:18;;;;;;;20.45;10.50;;;;;;;;;;5084351;28;20466;-67
2023/10/19 06:03:46;;;;;;;24.20;10.65;;;;;;;;;;5092493;28;20040;-64
2023/10/19 06:06:14;;;;;;;20.23;10.40;;;;;;;;;;5092512;28;20043;-66
2023/10/19 06:08:41;;;;;;;22.10;10.00;;;;;;;;;;5084289;28;20064;-65
2023/10/19 06:11:09;;;;;;;20.23;10.50;;;;;;;;;;5087201;28;20063;-66
2023/10/19 06:13:36;;;;;;;18.70;10.02;;;;;;;;;;5083643;28;20051;-66
2023/10/19 06:16:04;;;;;;;22.63;9.85;;;;;;;;;;5075834;28;20037;-65
2023/10/19 06:18:32;;;;;;;27.13;10.38;;;;;;;;;;5080717;28;20037;-66
2023/10/19 06:20:59;;;;;;;24.60;10.95;;;;;;;;;;5079287;28;20072;-66
2023/10/19 06:23:27;;;;;;;36.97;13.20;;;;;;;;;;5087611;28;20047;-66
2023/10/19 06:25:54;;;;;;;21.70;11.13;;;;;;;;;;5081887;28;20401;-66
2023/10/19 06:28:22;;;;;;;24.48;11.48;;;;;;;;;;5081695;28;20040;-67
2023/10/19 06:30:50;;;;;;;33.60;15.32;;;;;;;;;;5085760;28;20044;-66
2023/10/19 06:33:18;;;;;;;135.35;66.18;;;;;;;;;;5095220;28;20044;-66
2023/10/19 06:35:46;;;;;;;179.10;91.40;;;;;;;;;;5091188;28;20041;-67
2023/10/19 06:38:14;;;;;;;186.07;103.72;;;;;;;;;;5088319;28;20036;-67
2023/10/19 06:40:42;;;;;;;206.82;114.80;;;;;;;;;;5095904;28;20043;-66
2023/10/19 06:43:11;;;;;;;178.88;107.55;;;;;;;;;;5095614;28;20086;-67
2023/10/19 06:45:38;;;;;;;141.98;85.03;;;;;;;;;;5094647;28;20044;-67
2023/10/19 06:48:06;;;;;;;80.80;50.85;;;;;;;;;;5094556;28;20047;-67
2023/10/19 06:50:35;;;;;;;58.50;31.63;;;;;;;;;;5095755;28;20040;-66
2023/10/19 06:53:05;;;;;;;45.92;26.48;;;;;;;;;;5094311;28;20390;-66
2023/10/19 06:55:33;;;;;;;28.23;15.15;;;;;;;;;;5095649;28;20399;-66
2023/10/19 06:58:01;;;;;;;25.73;10.32;;;;;;;;;;5090737;28;20036;-66
2023/10/19 07:00:28;;;;;;;14.70;8.20;;;;;;;;;;5084168;28;20452;-66
2023/10/19 07:03:02;;;;;;;22.25;10.43;;;;;;;;;;5071258;28;20052;-66
2023/10/19 07:05:30;;;;;;;23.25;9.68;;;;;;;;;;5080312;28;20131;-66
2023/10/19 07:07:59;;;;;;;16.00;8.82;;;;;;;;;;5063572;28;20044;-66
2023/10/19 07:10:27;;;;;;;11.90;7.78;;;;;;;;;;5080303;28;20155;-66
2023/10/19 07:12:57;;;;;;;19.63;8.10;;;;;;;;;;5083416;28;20033;-67
2023/10/19 07:15:26;;;;;;;12.88;7.88;;;;;;;;;;5076323;28;20045;-67
2023/10/19 07:17:54;;;;;;;218.73;27.13;;;;;;;;;;5073218;28;20036;-66
2023/10/19 07:20:25;;;;;;;39.47;10.40;;;;;;;;;;5078310;28;20052;-68
2023/10/19 07:22:54;;;;;;;18.58;7.95;;;;;;;;;;5088939;28;20051;-67
2023/10/19 07:25:22;;;;;;;16.02;7.97;;;;;;;;;;5086561;28;20040;-67
2023/10/19 07:27:50;;;;;;;32.88;9.48;;;;;;;;;;5086619;28;20126;-67
2023/10/19 07:30:21;;;;;;;23.23;8.45;;;;;;;;;;5086015;28;20439;-66
2023/10/19 07:32:58;;;;;;;17.65;10.23;;;;;;;;;;5083699;28;20382;-67
2023/10/19 07:35:27;;;;;;;19.15;9.05;;;;;;;;;;5087174;28;20093;-66
2023/10/19 07:37:56;;;;;;;16.17;8.75;;;;;;;;;;5090582;28;20074;-66
2023/10/19 07:40:24;;;;;;;15.55;7.53;;;;;;;;;;5094905;28;20036;-67
2023/10/19 07:42:54;;;;;;;15.90;6.70;;;;;;;;;;5094793;28;20044;-66
2023/10/19 07:45:22;;;;;;;14.00;6.85;;;;;;;;;;5094924;28;20436;-66
2023/10/19 07:47:50;;;;;;;12.65;7.22;;;;;;;;;;5094654;28;20044;-66
2023/10/19 07:50:19;;;;;;;18.75;7.25;;;;;;;;;;5093349;28;20097;-66
2023/10/19 07:52:48;;;;;;;13.48;6.97;;;;;;;;;;5094426;28;20055;-67
2023/10/19 07:55:17;;;;;;;22.45;8.20;;;;;;;;;;5094595;28;20503;-66
2023/10/19 07:57:45;;;;;;;15.68;7.78;;;;;;;;;;5093302;28;20099;-67
2023/10/19 08:00:17;;;;;;;13.15;7.50;;;;;;;;;;5094804;28;20070;-67
2023/10/19 08:02:48;;;;;;;12.48;7.03;;;;;;;;;;5094401;28;20554;-67
2023/10/19 08:05:18;;;;;;;14.38;8.20;;;;;;;;;;5094305;28;20135;-67
2023/10/19 08:07:49;;;;;;;18.15;8.52;;;;;;;;;;5094576;28;20040;-67
2023/10/19 08:10:18;;;;;;;15.38;7.90;;;;;;;;;;5094340;28;20131;-67
2023/10/19 08:12:49;;;;;;;14.85;8.85;;;;;;;;;;5094227;28;20516;-67
2023/10/19 08:15:17;;;;;;;16.30;9.25;;;;;;;;;;5094191;28;20066;-66
2023/10/19 08:17:47;;;;;;;13.20;6.80;;;;;;;;;;5094067;28;20470;-66
2023/10/19 08:20:24;;;;;;;16.55;8.95;;;;;;;;;;5094342;28;20135;-66
2023/10/19 08:22:54;;;;;;;18.38;7.35;;;;;;;;;;5094125;28;20489;-67
2023/10/19 08:25:21;;;;;;;17.60;6.95;;;;;;;;;;5093964;28;20040;-66
2023/10/19 08:27:50;;;;;;;16.60;7.90;;;;;;;;;;5093888;28;20044;-66
2023/10/19 08:30:18;;;;;;;12.93;8.10;;;;;;;;;;5093922;28;20051;-66
2023/10/19 08:32:49;;;;;;;13.20;8.13;;;;;;;;;;5094088;28;20444;-66
2023/10/19 08:35:24;;;;;;;11.40;7.72;;;;;;;;;;5093835;28;20075;-66
2023/10/19 08:37:53;;;;;;;13.10;7.45;;;;;;;;;;5092516;28;20047;-66
2023/10/19 08:40:21;;;;;;;14.10;8.55;;;;;;;;;;5093617;28;20044;-66
2023/10/19 08:42:49;;;;;;;14.40;8.23;;;;;;;;;;5093662;28;20040;-66
2023/10/19 08:45:17;;;;;;;19.33;9.13;;;;;;;;;;5093555;28;20044;-66
2023/10/19 08:47:50;;;;;;;16.98;9.38;;;;;;;;;;5093509;28;20079;-66
2023/10/19 08:50:23;;;;;;;17.80;9.02;;;;;;;;;;5093501;28;20043;-66
2023/10/19 08:52:53;;;;;;;12.30;6.80;;;;;;;;;;5092834;28;20048;-66
2023/10/19 08:55:21;;;;;;;19.25;8.00;;;;;;;;;;5093502;28;20036;-66
2023/10/19 08:58:07;;;;;;;12.95;6.47;;;;;;;;;;5093634;28;20090;-66
2023/10/19 09:00:48;;;;;;;11.95;6.38;;;;;;;;;;5093616;28;20397;-66
2023/10/19 09:03:17;;;;;;;13.30;7.78;;;;;;;;;;5093564;28;20067;-66
2023/10/19 09:05:46;;;;;;;12.73;7.22;;;;;;;;;;5093452;28;20040;-66
2023/10/19 09:08:16;;;;;;;14.05;6.60;;;;;;;;;;5092910;28;20048;-66
2023/10/19 09:10:45;;;;;;;15.23;6.65;;;;;;;;;;5092279;28;20415;-67
2023/10/19 09:13:15;;;;;;;14.52;6.65;;;;;;;;;;5093111;28;20047;-66
2023/10/19 09:15:43;;;;;;;16.92;7.35;;;;;;;;;;5092227;28;20052;-66
2023/10/19 09:18:21;;;;;;;13.75;6.72;;;;;;;;;;5093087;28;20040;-65
2023/10/19 09:20:53;;;;;;;8.85;4.97;;;;;;;;;;5093072;28;20039;-65
2023/10/19 09:23:27;;;;;;;8.73;5.18;;;;;;;;;;5092945;28;20040;-65
2023/10/19 09:25:54;;;;;;;12.68;6.07;;;;;;;;;;5092999;28;20119;-65
2023/10/19 09:28:23;;;;;;;10.48;5.82;;;;;;;;;;5092947;28;20064;-66
2023/10/19 09:30:52;;;;;;;13.27;6.47;;;;;;;;;;5092885;28;20047;-66
2023/10/19 09:33:21;;;;;;;10.52;5.47;;;;;;;;;;5092930;28;20111;-66
2023/10/19 09:35:52;;;;;;;12.27;4.30;;;;;;;;;;5091521;28;20378;-66
2023/10/19 09:38:27;;;;;;;12.02;4.50;;;;;;;;;;5092924;28;20040;-66
2023/10/19 09:40:55;;;;;;;6.40;4.03;;;;;;;;;;5092912;28;20044;-66
2023/10/19 09:43:44;;;;;;;7.13;4.45;;;;;;;;;;5092767;28;20269;-66
2023/10/19 09:46:12;;;;;;;10.05;5.30;;;;;;;;;;5092787;28;20101;-66
2023/10/19 09:48:45;;;;;;;10.95;6.22;;;;;;;;;;5092832;28;20044;-66
2023/10/19 09:51:13;;;;;;;9.57;5.70;;;;;;;;;;5092771;28;20036;-65
2023/10/19 09:53:46;;;;;;;11.60;5.00;;;;;;;;;;5092408;28;20052;-65
2023/10/19 09:56:16;;;;;;;10.32;5.60;;;;;;;;;;5091290;28;20047;-65
2023/10/19 09:58:48;;;;;;;10.60;4.75;;;;;;;;;;5092580;28;20055;-66
2023/10/19 10:01:21;;;;;;;7.43;4.78;;;;;;;;;;5091496;28;20424;-66
2023/10/19 10:03:52;;;;;;;9.82;4.80;;;;;;;;;;5093137;28;20043;-66
2023/10/19 10:06:29;;;;;;;10.13;4.10;;;;;;;;;;5096666;28;20058;-66
2023/10/19 10:08:59;;;;;;;8.65;5.00;;;;;;;;;;5095247;28;20089;-66
2023/10/19 10:11:27;;;;;;;18.60;5.25;;;;;;;;;;5096909;28;20401;-67
2023/10/19 10:13:56;;;;;;;6.50;4.22;;;;;;;;;;5096698;28;20062;-67
2023/10/19 10:16:26;;;;;;;6.30;3.60;;;;;;;;;;5095375;28;20097;-67
2023/10/19 10:19:00;;;;;;;5.60;3.17;;;;;;;;;;5096405;28;20040;-67
2023/10/19 10:21:29;;;;;;;5.75;3.25;;;;;;;;;;5096207;28;20040;-65
2023/10/19 10:23:59;;;;;;;5.30;3.00;;;;;;;;;;5096228;28;20533;-65
2023/10/19 10:26:35;;;;;;;6.78;3.35;;;;;;;;;;5094839;28;20036;-65
2023/10/19 10:29:19;;;;;;;7.05;3.13;;;;;;;;;;5096369;28;20067;-65
2023/10/19 10:31:47;;;;;;;8.25;3.13;;;;;;;;;;5096222;28;20055;-66
2023/10/19 10:34:34;;;;;;;48.78;5.07;;;;;;;;;;5096185;28;20043;-67
2023/10/19 10:37:03;;;;;;;7.60;3.05;;;;;;;;;;5095991;28;20083;-65
2023/10/19 10:39:31;;;;;;;8.65;3.40;;;;;;;;;;5095921;28;20044;-66
2023/10/19 10:41:59;;;;;;;8.00;2.75;;;;;;;;;;5094657;28;20075;-66
2023/10/19 10:44:40;;;;;;;4.70;3.20;;;;;;;;;;5094494;28;20478;-66
2023/10/19 10:47:16;;;;;;;7.10;3.00;;;;;;;;;;5095797;28;20040;-65
2023/10/19 10:49:52;;;;;;;5.80;3.20;;;;;;;;;;5095610;28;20048;-66
2023/10/19 10:52:33;;;;;;;6.32;3.42;;;;;;;;;;5095538;28;20044;-66
2023/10/19 10:55:07;;;;;;;5.60;3.08;;;;;;;;;;5095716;28;20038;-66
2023/10/19 10:57:36;;;;;;;4.63;2.85;;;;;;;;;;5095618;28;20469;-66
2023/10/19 11:00:09;;;;;;;6.03;3.38;;;;;;;;;;5094262;28;20101;-67
2023/10/19 11:02:42;;;;;;;3.95;3.20;;;;;;;;;;5094567;28;20051;-67
2023/10/19 11:05:14;;;;;;;5.10;2.90;;;;;;;;;;5095500;28;20040;-65
2023/10/19 11:08:02;;;;;;;6.05;3.20;;;;;;;;;;5095550;28;20238;-66
2023/10/19 11:10:30;;;;;;;4.82;2.83;;;;;;;;;;5095438;28;20071;-66
2023/10/19 11:13:05;;;;;;;3.92;3.05;;;;;;;;;;5095476;28;20111;-66
2023/10/19 11:15:34;;;;;;;10.38;3.60;;;;;;;;;;5093667;28;20089;-66
2023/10/19 11:18:01;;;;;;;6.70;3.60;;;;;;;;;;5095214;28;20040;-67
2023/10/19 11:20:29;;;;;;;3.95;3.28;;;;;;;;;;5095187;28;20414;-65
2023/10/19 11:23:00;;;;;;;5.80;3.40;;;;;;;;;;5095249;28;20040;-65
2023/10/19 11:25:28;;;;;;;39.80;5.10;;;;;;;;;;5095056;28;20044;-65
2023/10/19 11:27:57;;;;;;;8.25;3.90;;;;;;;;;;5094043;28;20047;-66
2023/10/19 11:30:25;;;;;;;6.72;4.13;;;;;;;;;;5095086;28;20170;-66
2023/10/19 11:32:56;;;;;;;10.63;3.60;;;;;;;;;;5094935;28;20040;-66
2023/10/19 11:35:27;;;;;;;5.53;3.30;;;;;;;;;;5094897;28;20044;-67
2023/10/19 11:37:56;;;;;;;6.95;3.42;;;;;;;;;;5094931;28;20043;-67
2023/10/19 11:40:25;;;;;;;6.00;3.00;;;;;;;;;;5093629;28;20059;-67
2023/10/19 11:42:56;;;;;;;5.38;3.33;;;;;;;;;;5094748;28;20036;-66
2023/10/19 11:45:24;;;;;;;6.72;3.38;;;;;;;;;;5094560;28;20036;-66
2023/10/19 11:47:51;;;;;;;6.38;3.30;;;;;;;;;;5094571;28;20561;-66
2023/10/19 11:50:19;;;;;;;4.53;3.08;;;;;;;;;;5093237;28;20432;-67
2023/10/19 11:52:47;;;;;;;4.22;3.00;;;;;;;;;;5094406;28;20397;-66
2023/10/19 11:55:15;;;;;;;7.53;3.20;;;;;;;;;;5094452;28;20109;-66
2023/10/19 11:57:43;;;;;;;6.93;3.50;;;;;;;;;;5094428;28;20118;-66
2023/10/19 12:00:33;;;;;;;3.70;2.65;;;;;;;;;;5094345;28;20036;-66
2023/10/19 12:03:01;;;;;;;4.75;3.08;;;;;;;;;;5086501;28;20491;-65
2023/10/19 12:05:29;;;;;;;4.30;3.00;;;;;;;;;;5084519;28;20036;-68
2023/10/19 12:07:56;;;;;;;16.83;3.40;;;;;;;;;;5091062;28;20109;-66
2023/10/19 12:10:32;;;;;;;6.47;3.00;;;;;;;;;;5085228;28;20040;-64
2023/10/19 12:13:01;;;;;;;7.55;2.95;;;;;;;;;;5063514;28;20040;-65
2023/10/19 12:15:29;;;;;;;4.85;3.10;;;;;;;;;;5074799;28;20047;-65
2023/10/19 12:17:57;;;;;;;9.23;3.17;;;;;;;;;;5073532;28;20046;-65
2023/10/19 12:20:25;;;;;;;6.05;2.78;;;;;;;;;;5073802;28;20045;-64
2023/10/19 12:22:53;;;;;;;11.48;3.60;;;;;;;;;;5073627;28;20082;-65
2023/10/19 12:25:28;;;;;;;11.10;3.20;;;;;;;;;;5081580;28;20050;-65
2023/10/19 12:28:16;;;;;;;6.53;3.15;;;;;;;;;;5089562;28;20041;-65
2023/10/19 12:30:44;;;;;;;4.80;2.80;;;;;;;;;;5084239;28;20044;-65
2023/10/19 12:33:12;;;;;;;3.65;2.50;;;;;;;;;;5080228;28;20426;-65
2023/10/19 12:35:53;;;;;;;6.13;2.80;;;;;;;;;;5077469;28;20043;-64
2023/10/19 12:38:21;;;;;;;8.63;3.22;;;;;;;;;;5079665;28;20036;-65
2023/10/19 12:40:50;;;;;;;9.25;3.05;;;;;;;;;;5083893;28;20055;-65
2023/10/19 12:43:19;;;;;;;5.18;2.90;;;;;;;;;;5092075;28;20680;-65
2023/10/19 12:45:50;;;;;;;5.32;3.15;;;;;;;;;;5093339;28;20093;-66
2023/10/19 12:48:18;;;;;;;8.70;3.00;;;;;;;;;;5092076;28;20042;-64
2023/10/19 12:50:45;;;;;;;7.70;2.97;;;;;;;;;;5081134;28;20040;-64
2023/10/19 12:53:13;;;;;;;7.93;3.17;;;;;;;;;;5078617;28;20222;-65
2023/10/19 12:55:43;;;;;;;7.63;3.50;;;;;;;;;;5081590;28;20036;-63
2023/10/19 12:58:11;;;;;;;5.15;3.30;;;;;;;;;;5084165;28;20067;-64
2023/10/19 13:00:46;;;;;;;9.32;3.80;;;;;;;;;;5081515;28;20040;-65
2023/10/19 13:03:15;;;;;;;6.78;2.97;;;;;;;;;;5074863;28;20051;-64
2023/10/19 13:05:46;;;;;;;15.82;3.22;;;;;;;;;;5075292;28;20488;-64
2023/10/19 13:08:15;;;;;;;6.25;2.92;;;;;;;;;;5092980;28;20040;-64
2023/10/19 13:10:43;;;;;;;6.10;2.60;;;;;;;;;;5091677;28;20051;-64
2023/10/19 13:13:12;;;;;;;9.38;3.80;;;;;;;;;;5091659;28;20040;-63
2023/10/19 13:15:41;;;;;;;12.32;3.35;;;;;;;;;;5092995;28;20119;-64
2023/10/19 13:18:10;;;;;;;18.95;3.20;;;;;;;;;;5092814;28;20043;-64
2023/10/19 13:20:38;;;;;;;7.88;3.60;;;;;;;;;;5089666;28;20569;-64
2023/10/19 13:23:11;;;;;;;5.18;3.03;;;;;;;;;;5081599;28;20499;-65
2023/10/19 13:26:01;;;;;;;6.30;2.95;;;;;;;;;;5092694;28;20114;-64
2023/10/19 13:28:28;;;;;;;8.82;3.60;;;;;;;;;;5092903;28;20033;-65
2023/10/19 13:30:56;;;;;;;7.90;3.20;;;;;;;;;;5091536;28;20050;-65
2023/10/19 13:33:24;;;;;;;5.68;2.90;;;;;;;;;;5092737;28;20045;-64
2023/10/19 13:35:51;;;;;;;6.03;2.78;;;;;;;;;;5087728;28;20090;-65
2023/10/19 13:38:19;;;;;;;7.13;3.58;;;;;;;;;;5072314;28;20116;-65
2023/10/19 13:40:48;;;;;;;10.32;4.13;;;;;;;;;;5072393;28;20119;-65
2023/10/19 13:43:21;;;;;;;9.95;3.33;;;;;;;;;;5071664;28;20422;-66
2023/10/19 13:45:49;;;;;;;4.32;2.35;;;;;;;;;;5071159;28;20086;-64
2023/10/19 13:48:17;;;;;;;3.97;2.90;;;;;;;;;;5072395;28;20037;-62
2023/10/19 13:50:48;;;;;;;4.90;2.70;;;;;;;;;;5072103;28;20036;-64
2023/10/19 13:53:17;;;;;;;31.98;5.22;;;;;;;;;;5072166;28;20056;-63
2023/10/19 13:55:45;;;;;;;6.47;3.42;;;;;;;;;;5072505;28;20041;-64
2023/10/19 13:58:12;;;;;;;5.43;3.60;;;;;;;;;;5072172;28;20486;-63
2023/10/19 14:00:44;;;;;;;13.48;3.75;;;;;;;;;;5072059;28;20037;-63
2023/10/19 14:03:13;;;;;;;9.70;3.22;;;;;;;;;;5072121;28;20132;-63
2023/10/19 14:05:43;;;;;;;9.40;3.60;;;;;;;;;;5072006;28;20055;-63
2023/10/19 14:08:10;;;;;;;28.70;4.43;;;;;;;;;;5072207;28;20390;-63
2023/10/19 14:10:41;;;;;;;14.75;3.55;;;;;;;;;;5071124;28;20490;-63
2023/10/19 14:13:11;;;;;;;10.35;3.72;;;;;;;;;;5072160;28;20502;-63
2023/10/19 14:15:39;;;;;;;23.00;4.15;;;;;;;;;;5071884;28;20068;-64
2023/10/19 14:18:07;;;;;;;34.38;6.03;;;;;;;;;;5070552;28;20099;-64
2023/10/19 14:20:38;;;;;;;8.45;3.28;;;;;;;;;;5071947;28;20045;-65
2023/10/19 14:23:06;;;;;;;4.93;2.90;;;;;;;;;;5072016;28;20446;-65
2023/10/19 14:25:41;;;;;;;8.50;4.07;;;;;;;;;;5071863;28;20079;-65
2023/10/19 14:28:09;;;;;;;12.70;3.90;;;;;;;;;;5071831;28;20051;-64
2023/10/19 14:30:37;;;;;;;10.35;3.92;;;;;;;;;;5071549;28;20218;-65
2023/10/19 14:33:10;;;;;;;7.05;3.65;;;;;;;;;;5071844;28;20062;-65
2023/10/19 14:35:42;;;;;;;12.97;4.73;;;;;;;;;;5071788;28;20044;-65
2023/10/19 14:38:13;;;;;;;13.80;4.45;;;;;;;;;;5071682;28;20287;-65
2023/10/19 14:40:48;;;;;;;7.10;3.75;;;;;;;;;;5072222;28;20415;-66
2023/10/19 14:43:15;;;;;;;10.52;3.80;;;;;;;;;;5061298;28;20033;-64
2023/10/19 14:45:43;;;;;;;11.98;5.93;;;;;;;;;;5077424;28;20045;-65
2023/10/19 14:48:11;;;;;;;11.43;6.35;;;;;;;;;;5088923;28;20048;-64
2023/10/19 14:50:39;;;;;;;14.27;6.97;;;;;;;;;;5093383;28;20050;-66
2023/10/19 14:53:06;;;;;;;17.00;7.75;;;;;;;;;;5095431;28;20424;-67
2023/10/19 14:55:34;;;;;;;21.50;5.35;;;;;;;;;;5095627;28;20040;-66
2023/10/19 14:58:02;;;;;;;28.25;6.22;;;;;;;;;;5095475;28;20116;-65
2023/10/19 15:00:33;;;;;;;81.82;9.10;;;;;;;;;;5095568;28;20044;-63
2023/10/19 15:03:09;;;;;;;220.15;19.08;;;;;;;;;;5095211;28;20046;-64
2023/10/19 15:05:37;;;;;;;100.10;11.27;;;;;;;;;;5095396;28;20048;-63
2023/10/19 15:08:06;;;;;;;58.58;8.63;;;;;;;;;;5095334;28;20442;-64
2023/10/19 15:10:35;;;;;;;74.78;9.43;;;;;;;;;;5095313;28;20740;-73
2023/10/19 15:13:02;;;;;;;42.53;14.77;;;;;;;;;;5093828;28;20032;-75
2023/10/19 15:15:30;;;;;;;60.28;34.42;;;;;;;;;;5095191;28;20086;-76
2023/10/19 15:17:57;;;;;;;64.85;46.00;;;;;;;;;;5095142;28;20040;-74
2023/10/19 15:20:27;;;;;;;61.28;40.08;;;;;;;;;;5095220;28;20043;-72
2023/10/19 15:22:55;;;;;;;99.47;48.90;;;;;;;;;;5094999;28;20084;-75
2023/10/19 15:25:26;;;;;;;47.33;27.25;;;;;;;;;;5094047;28;20044;-72